createdAt,value
2019-05-16T00:00:29.040Z,1.77
2019-05-16T00:02:58.902Z,1.97
2019-05-16T00:05:28.214Z,1.43
2019-05-16T00:07:58.958Z,1.50
2019-05-16T00:10:28.102Z,1.87
2019-05-16T00:12:59.584Z,1.40
2019-05-16T00:15:28.732Z,2.10
2019-05-16T00:17:58.443Z,1.70
2019-05-16T00:20:28.358Z,1.70
2019-05-16T00:22:58.904Z,1.77
2019-05-16T00:25:28.530Z,1.80
2019-05-16T00:27:58.777Z,2.30
2019-05-16T00:30:28.777Z,1.73
2019-05-16T00:32:58.796Z,2.47
2019-05-16T00:35:28.562Z,2.80
2019-05-16T00:37:58.970Z,2.10
2019-05-16T00:40:28.100Z,1.70
2019-05-16T00:42:58.846Z,2.10
2019-05-16T00:45:29.548Z,2.10
2019-05-16T00:47:58.483Z,2.60
2019-05-16T00:50:28.867Z,1.70
2019-05-16T00:52:58.949Z,1.97
2019-05-16T00:55:28.845Z,2.10
2019-05-16T00:57:58.918Z,2.90
2019-05-16T01:00:45.163Z,2.67
2019-05-16T01:03:14.345Z,2.23
2019-05-16T01:05:43.845Z,2.27
2019-05-16T01:08:13.157Z,2.13
2019-05-16T01:10:42.013Z,1.80
2019-05-16T01:13:10.861Z,1.73
2019-05-16T01:15:39.674Z,2.07
2019-05-16T01:18:08.389Z,2.20
2019-05-16T01:20:38.654Z,2.77
2019-05-16T01:23:08.897Z,2.40
2019-05-16T01:25:38.759Z,1.90
2019-05-16T01:28:08.820Z,2.27
2019-05-16T01:30:38.236Z,2.40
2019-05-16T01:33:08.900Z,1.90
2019-05-16T01:35:38.579Z,2.33
2019-05-16T01:38:08.652Z,2.00
2019-05-16T01:40:38.760Z,2.60
2019-05-16T01:43:08.529Z,2.50
2019-05-16T01:45:38.454Z,2.67
2019-05-16T01:48:08.230Z,2.67
2019-05-16T01:50:38.866Z,2.47
2019-05-16T01:53:08.693Z,2.63
2019-05-16T01:55:38.116Z,2.50
2019-05-16T01:58:08.021Z,2.50
2019-05-16T02:00:47.912Z,2.17
2019-05-16T02:03:08.241Z,2.80
2019-05-16T02:05:38.709Z,2.43
2019-05-16T02:08:08.809Z,3.13
2019-05-16T02:10:38.066Z,2.83
2019-05-16T02:13:08.543Z,2.10
2019-05-16T02:15:38.381Z,2.63
2019-05-16T02:18:08.270Z,2.43
2019-05-16T02:20:39.297Z,2.43
2019-05-16T02:23:08.062Z,2.70
2019-05-16T02:25:38.183Z,2.40
2019-05-16T02:28:07.409Z,2.40
2019-05-16T02:30:36.475Z,2.10
2019-05-16T02:33:05.181Z,1.83
2019-05-16T02:35:33.882Z,2.37
2019-05-16T02:38:02.742Z,3.07
2019-05-16T02:40:31.655Z,2.40
2019-05-16T02:43:01.714Z,2.33
2019-05-16T02:45:32.598Z,2.37
2019-05-16T02:48:01.672Z,2.60
2019-05-16T02:50:31.911Z,2.73
2019-05-16T02:53:01.817Z,3.30
2019-05-16T02:55:31.017Z,2.40
2019-05-16T02:58:00.843Z,3.07
2019-05-16T03:00:41.962Z,2.70
2019-05-16T03:03:11.640Z,2.67
2019-05-16T03:05:41.963Z,2.77
2019-05-16T03:08:12.232Z,3.13
2019-05-16T03:10:41.614Z,3.10
2019-05-16T03:13:11.309Z,2.80
2019-05-16T03:15:41.211Z,3.20
2019-05-16T03:18:12.345Z,3.60
2019-05-16T03:20:42.130Z,3.27
2019-05-16T03:23:11.538Z,3.80
2019-05-16T03:25:41.868Z,3.17
2019-05-16T03:28:11.239Z,2.73
2019-05-16T03:30:44.491Z,3.17
2019-05-16T03:33:19.483Z,2.90
2019-05-16T03:35:44.700Z,2.83
2019-05-16T03:38:12.079Z,3.10
2019-05-16T03:40:41.440Z,3.40
2019-05-16T03:43:11.563Z,2.20
2019-05-16T03:45:41.803Z,2.83
2019-05-16T03:48:12.050Z,2.80
2019-05-16T03:50:41.553Z,2.50
2019-05-16T03:53:11.615Z,2.73
2019-05-16T03:55:40.992Z,2.87
2019-05-16T03:58:11.733Z,2.53
2019-05-16T04:00:52.781Z,2.67
2019-05-16T04:03:21.870Z,2.53
2019-05-16T04:05:52.677Z,2.70
2019-05-16T04:08:24.837Z,3.07
2019-05-16T04:10:52.539Z,2.80
2019-05-16T04:13:21.989Z,2.80
2019-05-16T04:15:52.393Z,2.80
2019-05-16T04:18:22.165Z,2.90
2019-05-16T04:20:52.454Z,2.60
2019-05-16T04:23:21.678Z,3.03
2019-05-16T04:25:52.324Z,2.70
2019-05-16T04:28:22.267Z,3.30
2019-05-16T04:30:52.107Z,3.20
2019-05-16T04:33:22.386Z,2.67
2019-05-16T04:35:52.592Z,2.53
2019-05-16T04:38:35.098Z,2.27
2019-05-16T04:40:52.434Z,2.17
2019-05-16T04:43:22.379Z,2.70
2019-05-16T04:45:52.545Z,2.90
2019-05-16T04:48:22.616Z,2.23
2019-05-16T04:50:52.445Z,2.70
2019-05-16T04:53:21.810Z,2.37
2019-05-16T04:55:51.949Z,2.30
2019-05-16T04:58:23.882Z,2.83
2019-05-16T05:00:52.568Z,2.10
2019-05-16T05:03:22.297Z,2.77
2019-05-16T05:05:51.855Z,2.27
2019-05-16T05:08:21.879Z,2.57
2019-05-16T05:10:52.075Z,1.50
2019-05-16T05:13:22.305Z,2.10
2019-05-16T05:15:51.362Z,2.20
2019-05-16T05:18:21.255Z,1.70
2019-05-16T05:20:52.320Z,1.87
2019-05-16T05:23:21.351Z,1.90
2019-05-16T05:25:51.380Z,2.10
2019-05-16T05:28:21.244Z,2.13
2019-05-16T05:30:50.664Z,2.00
2019-05-16T05:33:20.929Z,1.77
2019-05-16T05:35:50.923Z,2.70
2019-05-16T05:38:21.161Z,2.00
2019-05-16T05:40:51.401Z,2.10
2019-05-16T05:43:21.637Z,2.47
2019-05-16T05:45:51.514Z,2.20
2019-05-16T05:48:21.622Z,2.17
2019-05-16T05:50:51.498Z,2.63
2019-05-16T05:53:21.067Z,2.47
2019-05-16T05:55:51.525Z,2.73
2019-05-16T05:58:21.225Z,2.20
2019-05-16T06:00:51.926Z,2.57
2019-05-16T06:03:22.470Z,2.80
2019-05-16T06:05:51.073Z,1.73
2019-05-16T06:08:20.654Z,2.70
2019-05-16T06:10:50.369Z,2.43
2019-05-16T06:13:20.746Z,1.80
2019-05-16T06:15:51.150Z,2.37
2019-05-16T06:18:20.308Z,2.33
2019-05-16T06:20:51.223Z,2.57
2019-05-16T06:23:20.619Z,2.30
2019-05-16T06:25:50.684Z,2.30
2019-05-16T06:28:20.800Z,2.20
2019-05-16T06:30:51.454Z,2.30
2019-05-16T06:33:20.488Z,1.90
2019-05-16T06:35:51.432Z,2.00
2019-05-16T06:38:20.950Z,2.03
2019-05-16T06:40:52.559Z,2.30
2019-05-16T06:43:20.815Z,2.00
2019-05-16T06:45:51.386Z,1.73
2019-05-16T06:48:21.110Z,1.70
2019-05-16T06:50:51.527Z,2.00
2019-05-16T06:53:21.283Z,1.70
2019-05-16T06:55:50.384Z,2.00
2019-05-16T06:58:21.765Z,1.93
2019-05-16T07:00:52.132Z,2.20
2019-05-16T07:03:20.772Z,1.60
2019-05-16T07:05:50.724Z,2.00
2019-05-16T07:08:21.049Z,1.50
2019-05-16T07:10:50.814Z,1.70
2019-05-16T07:13:20.880Z,1.70
2019-05-16T07:15:50.326Z,1.63
2019-05-16T07:18:20.824Z,1.80
2019-05-16T07:20:51.138Z,2.13
2019-05-16T07:23:21.073Z,2.20
2019-05-16T07:25:50.603Z,1.70
2019-05-16T07:28:21.002Z,1.70
2019-05-16T07:30:51.644Z,2.07
2019-05-16T07:33:21.103Z,2.03
2019-05-16T07:35:51.253Z,2.20
2019-05-16T07:38:20.699Z,2.30
2019-05-16T07:40:51.240Z,2.33
2019-05-16T07:43:20.504Z,2.50
2019-05-16T07:45:51.404Z,2.20
2019-05-16T07:48:21.424Z,2.57
2019-05-16T07:50:51.221Z,4.20
2019-05-16T07:53:21.379Z,4.33
2019-05-16T07:55:51.068Z,3.00
2019-05-16T07:58:21.729Z,3.80
2019-05-16T08:01:02.049Z,2.93
2019-05-16T08:03:21.493Z,3.17
2019-05-16T08:05:51.281Z,3.10
2019-05-16T08:08:24.217Z,3.10
2019-05-16T08:10:51.398Z,3.27
2019-05-16T08:13:21.049Z,3.63
2019-05-16T08:15:50.726Z,3.93
2019-05-16T08:18:21.484Z,4.50
2019-05-16T08:20:52.565Z,4.50
2019-05-16T08:23:22.368Z,4.80
2019-05-16T08:25:51.599Z,4.57
2019-05-16T08:28:21.503Z,4.60
2019-05-16T08:30:52.976Z,4.63
2019-05-16T08:35:51.910Z,4.60
2019-05-16T08:38:21.732Z,4.43
2019-05-16T08:43:22.227Z,4.13
2019-05-16T08:50:11.117Z,4.10
2019-05-16T08:53:22.521Z,3.97
2019-05-16T08:55:51.271Z,3.63
2019-05-16T08:58:23.642Z,4.67
2019-05-16T09:00:55.325Z,3.77
2019-05-16T09:03:22.336Z,2.73
2019-05-16T09:08:21.832Z,3.60
2019-05-16T09:10:38.905Z,4.80
2019-05-16T09:10:38.939Z,4.30
2019-05-16T09:10:41.044Z,2.80
2019-05-16T09:11:09.269Z,3.17
2019-05-16T09:13:21.030Z,3.20
2019-05-16T09:15:49.861Z,3.17
2019-05-16T09:18:18.641Z,3.40
2019-05-16T09:18:30.745Z,4.63
2019-05-16T09:18:38.427Z,3.90
2019-05-16T09:20:50.343Z,2.90
2019-05-16T09:23:18.155Z,3.20
2019-05-16T09:25:48.861Z,3.13
2019-05-16T09:28:17.593Z,4.00
2019-05-16T09:30:47.107Z,3.00
2019-05-16T09:33:17.629Z,2.93
2019-05-16T09:35:47.707Z,3.97
2019-05-16T09:38:22.886Z,2.67
2019-05-16T09:40:48.266Z,4.23
2019-05-16T09:43:17.903Z,2.90
2019-05-16T09:45:47.341Z,3.27
2019-05-16T09:48:19.016Z,4.03
2019-05-16T09:50:47.241Z,3.50
2019-05-16T09:53:16.980Z,2.73
2019-05-16T09:55:47.221Z,3.50
2019-05-16T09:58:18.038Z,3.50
2019-05-16T10:00:47.586Z,3.03
2019-05-16T10:03:20.235Z,3.03
2019-05-16T10:05:47.270Z,3.30
2019-05-16T10:08:17.319Z,2.43
2019-05-16T10:10:46.481Z,3.23
2019-05-16T10:13:17.963Z,2.93
2019-05-16T10:15:47.318Z,3.47
2019-05-16T10:18:17.058Z,3.10
2019-05-16T10:20:45.942Z,3.07
2019-05-16T10:23:17.871Z,3.20
2019-05-16T10:25:47.724Z,3.53
2019-05-16T10:28:17.312Z,3.20
2019-05-16T10:30:49.717Z,3.43
2019-05-16T10:33:18.763Z,3.60
2019-05-16T10:35:48.049Z,3.17
2019-05-16T10:38:16.954Z,3.20
2019-05-16T10:40:47.566Z,3.27
2019-05-16T10:43:17.267Z,3.40
2019-05-16T10:45:46.491Z,2.97
2019-05-16T10:48:17.592Z,2.87
2019-05-16T10:50:47.786Z,2.50
2019-05-16T10:53:33.565Z,3.20
2019-05-16T10:55:47.642Z,3.70
2019-05-16T10:58:34.999Z,3.20
2019-05-16T11:01:11.154Z,2.70
2019-05-16T11:03:17.741Z,3.27
2019-05-16T11:06:01.278Z,3.43
2019-05-16T11:08:16.698Z,3.17
2019-05-16T11:10:47.491Z,3.23
2019-05-16T11:13:17.130Z,3.90
2019-05-16T11:15:46.864Z,3.53
2019-05-16T11:18:17.582Z,3.07
2019-05-16T11:20:49.204Z,3.27
2019-05-16T11:23:22.272Z,2.80
2019-05-16T11:25:47.189Z,2.53
2019-05-16T11:28:17.716Z,3.77
2019-05-16T11:30:47.594Z,3.30
2019-05-16T11:33:17.394Z,3.40
2019-05-16T11:35:47.585Z,4.00
2019-05-16T11:38:17.773Z,3.83
2019-05-16T11:40:47.667Z,3.30
2019-05-16T11:43:21.052Z,3.40
2019-05-16T11:45:47.404Z,3.27
2019-05-16T11:48:17.088Z,2.80
2019-05-16T11:50:48.121Z,2.80
2019-05-16T11:53:17.650Z,3.20
2019-05-16T11:55:54.463Z,2.80
2019-05-16T11:58:18.211Z,3.03
2019-05-16T12:00:48.231Z,3.17
2019-05-16T12:03:17.365Z,3.10
2019-05-16T12:05:48.135Z,2.77
2019-05-16T12:08:17.549Z,2.70
2019-05-16T12:10:47.137Z,3.77
2019-05-16T12:13:25.299Z,3.13
2019-05-16T12:15:46.610Z,2.87
2019-05-16T12:18:17.319Z,3.00
2019-05-16T12:20:46.002Z,2.60
2019-05-16T12:23:17.178Z,3.30
2019-05-16T12:25:47.377Z,4.50
2019-05-16T12:28:16.823Z,3.60
2019-05-16T12:30:47.153Z,4.10
2019-05-16T12:33:18.753Z,3.73
2019-05-16T12:35:47.503Z,4.03
2019-05-16T12:38:17.114Z,4.30
2019-05-16T12:40:47.985Z,3.90
2019-05-16T12:43:18.107Z,4.50
2019-05-16T12:45:47.445Z,4.90
2019-05-16T12:48:20.279Z,4.90
2019-05-16T12:50:48.265Z,4.97
2019-05-16T12:53:17.244Z,5.50
2019-05-16T12:55:47.625Z,5.17
2019-05-16T12:58:25.090Z,5.47
2019-05-16T13:00:53.988Z,5.77
2019-05-16T13:03:17.666Z,5.97
2019-05-16T13:05:47.717Z,6.87
2019-05-16T13:08:17.411Z,6.47
2019-05-16T13:10:47.033Z,6.53
2019-05-16T13:13:17.687Z,6.00
2019-05-16T13:15:47.529Z,6.70
2019-05-16T13:18:17.034Z,7.07
2019-05-16T13:20:46.825Z,6.37
2019-05-16T13:23:18.285Z,7.40
2019-05-16T13:25:48.045Z,8.37
2019-05-16T13:28:17.071Z,8.77
2019-05-16T13:30:47.173Z,7.73
2019-05-16T13:33:17.778Z,8.23
2019-05-16T13:35:47.305Z,8.60
2019-05-16T13:38:17.423Z,8.50
2019-05-16T13:40:46.724Z,9.10
2019-05-16T13:43:17.510Z,9.03
2019-05-16T13:45:47.143Z,10.50
2019-05-16T13:48:17.169Z,9.93
2019-05-16T13:50:47.370Z,11.07
2019-05-16T13:53:16.538Z,11.00
2019-05-16T13:55:45.460Z,10.50
2019-05-16T13:58:17.592Z,11.10
2019-05-16T14:00:44.654Z,10.70
2019-05-16T14:03:13.460Z,10.83
2019-05-16T14:05:42.225Z,11.07
2019-05-16T14:08:10.932Z,11.87
2019-05-16T14:10:39.790Z,11.80
2019-05-16T14:13:08.549Z,12.13
2019-05-16T14:15:37.369Z,13.60
2019-05-16T14:18:07.814Z,14.77
2019-05-16T14:20:37.832Z,11.03
2019-05-16T14:23:08.479Z,10.47
2019-05-16T14:25:37.990Z,12.47
2019-05-16T14:28:07.669Z,13.20
2019-05-16T14:30:37.445Z,12.60
2019-05-16T14:33:13.592Z,12.43
2019-05-16T14:35:37.619Z,13.23
2019-05-16T14:38:06.839Z,12.50
2019-05-16T14:40:37.299Z,12.07
2019-05-16T14:43:08.186Z,12.77
2019-05-16T14:45:37.352Z,12.00
2019-05-16T14:48:07.668Z,14.50
2019-05-16T14:50:37.662Z,14.00
2019-05-16T14:53:07.397Z,15.10
2019-05-16T14:55:38.388Z,14.40
2019-05-16T14:58:07.546Z,15.20
2019-05-16T15:00:38.319Z,15.30
2019-05-16T15:03:08.179Z,15.70
2019-05-16T15:05:42.452Z,15.37
2019-05-16T15:08:08.748Z,16.80
2019-05-16T15:10:37.932Z,19.17
2019-05-16T15:13:07.858Z,20.50
2019-05-16T15:15:37.699Z,18.87
2019-05-16T15:18:08.136Z,20.80
2019-05-16T15:20:37.040Z,19.77
2019-05-16T15:23:07.762Z,21.23
2019-05-16T15:25:37.420Z,19.60
2019-05-16T15:28:07.554Z,20.33
2019-05-16T15:30:38.989Z,20.30
2019-05-16T15:33:08.528Z,18.03
2019-05-16T15:35:38.236Z,21.63
2019-05-16T15:38:08.158Z,21.87
2019-05-16T15:40:37.612Z,22.03
2019-05-16T15:43:07.827Z,22.63
2019-05-16T15:45:44.173Z,21.40
2019-05-16T15:48:12.756Z,21.17
2019-05-16T15:50:41.803Z,20.43
2019-05-16T15:53:10.672Z,21.97
2019-05-16T15:55:39.568Z,21.90
2019-05-16T15:58:10.306Z,21.63
2019-05-16T16:00:47.498Z,21.73
2019-05-16T16:03:17.361Z,23.87
2019-05-16T16:05:45.426Z,21.37
2019-05-16T16:08:17.842Z,22.97
2019-05-16T16:10:47.809Z,19.10
2019-05-16T16:13:19.768Z,20.70
2019-05-16T16:15:51.507Z,20.57
2019-05-16T16:18:21.600Z,21.17
2019-05-16T16:20:48.398Z,20.13
2019-05-16T16:23:17.732Z,20.00
2019-05-16T16:25:50.419Z,18.53
2019-05-16T16:28:17.747Z,18.30
2019-05-16T16:30:47.983Z,19.60
2019-05-16T16:33:25.342Z,17.83
2019-05-16T16:35:48.025Z,15.33
2019-05-16T16:38:17.191Z,15.53
2019-05-16T16:40:48.025Z,15.27
2019-05-16T16:43:16.314Z,15.00
2019-05-16T16:45:47.709Z,17.27
2019-05-16T16:48:17.085Z,15.53
2019-05-16T16:50:46.206Z,16.23
2019-05-16T16:53:17.477Z,14.57
2019-05-16T16:55:47.572Z,14.50
2019-05-16T16:58:17.548Z,14.47
2019-05-16T17:00:47.705Z,14.73
2019-05-16T17:03:16.761Z,15.33
2019-05-16T17:05:46.551Z,16.57
2019-05-16T17:08:16.766Z,16.17
2019-05-16T17:10:47.683Z,15.93
2019-05-16T17:13:16.967Z,15.77
2019-05-16T17:15:47.315Z,17.43
2019-05-16T17:18:17.384Z,17.60
2019-05-16T17:20:47.655Z,19.03
2019-05-16T17:23:17.305Z,17.00
2019-05-16T17:25:47.146Z,18.87
2019-05-16T17:28:17.330Z,18.77
2019-05-16T17:30:47.068Z,18.80
2019-05-16T17:33:18.342Z,17.50
2019-05-16T17:35:48.823Z,18.90
2019-05-16T17:38:17.393Z,17.73
2019-05-16T17:40:46.609Z,16.90
2019-05-16T17:43:16.508Z,17.97
2019-05-16T17:45:47.102Z,18.10
2019-05-16T17:48:17.628Z,17.33
2019-05-16T17:50:47.258Z,18.90
2019-05-16T17:53:17.465Z,18.33
2019-05-16T17:55:47.236Z,19.10
2019-05-16T17:58:16.486Z,18.87
2019-05-16T18:00:47.262Z,17.87
2019-05-16T18:03:17.347Z,18.37
2019-05-16T18:05:47.560Z,18.77
2019-05-16T18:08:16.604Z,19.60
2019-05-16T18:10:47.238Z,16.97
2019-05-16T18:13:15.932Z,18.77
2019-05-16T18:15:47.162Z,17.50
2019-05-16T18:18:17.768Z,16.13
2019-05-16T18:20:55.712Z,18.00
2019-05-16T18:23:16.595Z,16.90
2019-05-16T18:25:46.955Z,16.87
2019-05-16T18:28:17.552Z,17.13
2019-05-16T18:30:47.256Z,16.00
2019-05-16T18:33:16.598Z,17.07
2019-05-16T18:35:46.684Z,15.63
2019-05-16T18:38:15.631Z,14.90
2019-05-16T18:40:44.259Z,16.47
2019-05-16T18:43:12.957Z,16.47
2019-05-16T18:45:41.675Z,17.10
2019-05-16T18:48:10.376Z,16.47
2019-05-16T18:50:39.334Z,16.63
2019-05-16T18:53:08.027Z,13.93
2019-05-16T18:55:37.439Z,14.13
2019-05-16T18:58:08.556Z,14.63
2019-05-16T19:00:37.599Z,14.77
2019-05-16T19:03:07.721Z,16.13
2019-05-16T19:05:37.418Z,15.43
2019-05-16T19:08:07.864Z,16.57
2019-05-16T19:10:37.116Z,15.40
2019-05-16T19:13:08.076Z,15.27
2019-05-16T19:15:37.486Z,14.03
2019-05-16T19:18:06.681Z,15.00
2019-05-16T19:20:37.488Z,14.40
2019-05-16T19:23:07.292Z,15.70
2019-05-16T19:25:36.638Z,15.33
2019-05-16T19:28:06.785Z,16.80
2019-05-16T19:30:37.491Z,15.90
2019-05-16T19:33:07.010Z,15.37
2019-05-16T19:35:36.156Z,17.57
2019-05-16T19:38:06.833Z,16.73
2019-05-16T19:40:37.661Z,15.57
2019-05-16T19:43:07.216Z,14.70
2019-05-16T19:45:37.311Z,14.80
2019-05-16T19:48:07.306Z,14.77
2019-05-16T19:50:37.281Z,15.47
2019-05-16T19:53:07.601Z,17.37
2019-05-16T19:55:36.821Z,17.20
2019-05-16T19:58:06.941Z,15.37
2019-05-16T20:00:37.593Z,17.47
2019-05-16T20:03:07.712Z,17.90
2019-05-16T20:05:37.496Z,17.23
2019-05-16T20:08:07.072Z,19.43
2019-05-16T20:10:36.752Z,16.33
2019-05-16T20:13:07.768Z,17.97
2019-05-16T20:15:36.961Z,17.27
2019-05-16T20:18:07.780Z,18.70
2019-05-16T20:20:37.234Z,17.33
2019-05-16T20:23:06.775Z,16.60
2019-05-16T20:25:36.545Z,16.63
2019-05-16T20:28:08.498Z,15.50
2019-05-16T20:30:37.147Z,15.73
2019-05-16T20:33:06.990Z,15.00
2019-05-16T20:35:37.557Z,16.77
2019-05-16T20:38:07.008Z,15.63
2019-05-16T20:40:37.732Z,14.70
2019-05-16T20:43:07.692Z,15.30
2019-05-16T20:45:39.665Z,15.23
2019-05-16T20:48:14.652Z,15.70
2019-05-16T20:50:37.999Z,15.43
2019-05-16T20:53:07.253Z,15.47
2019-05-16T20:55:37.670Z,15.60
2019-05-16T20:58:07.770Z,17.70
2019-05-16T21:00:37.798Z,16.37
2019-05-16T21:03:07.266Z,17.27
2019-05-16T21:05:38.348Z,18.03
2019-05-16T21:08:07.329Z,17.40
2019-05-16T21:10:36.228Z,18.60
2019-05-16T21:13:07.202Z,18.07
2019-05-16T21:15:37.256Z,18.40
2019-05-16T21:18:07.609Z,15.77
2019-05-16T21:20:38.995Z,16.90
2019-05-16T21:23:07.434Z,19.00
2019-05-16T21:25:37.188Z,18.80
2019-05-16T21:28:07.868Z,15.83
2019-05-16T21:30:36.787Z,20.57
2019-05-16T21:33:05.644Z,18.00
2019-05-16T21:35:36.398Z,20.27
2019-05-16T21:38:08.747Z,21.70
2019-05-16T21:40:37.150Z,20.07
2019-05-16T21:43:07.487Z,22.67
2019-05-16T21:45:37.158Z,20.40
2019-05-16T21:48:07.415Z,24.27
2019-05-16T21:50:36.828Z,23.07
2019-05-16T21:53:07.223Z,26.77
2019-05-16T21:55:37.034Z,25.40
2019-05-16T21:58:05.939Z,28.20
2019-05-16T22:00:39.352Z,25.20
2019-05-16T22:03:08.936Z,26.00
2019-05-16T22:05:37.640Z,27.53
2019-05-16T22:08:07.401Z,27.20
2019-05-16T22:10:37.431Z,23.73
2019-05-16T22:13:07.820Z,23.83
2019-05-16T22:15:36.933Z,26.10
2019-05-16T22:18:07.232Z,23.57
2019-05-16T22:20:36.596Z,22.07
2019-05-16T22:23:07.021Z,22.60
2019-05-16T22:25:35.983Z,22.30
2019-05-16T22:28:06.968Z,23.67
2019-05-16T22:30:36.593Z,23.00
2019-05-16T22:33:08.592Z,24.70
2019-05-16T22:35:37.556Z,24.00
2019-05-16T22:38:06.805Z,23.20
2019-05-16T22:40:37.415Z,22.90
2019-05-16T22:43:07.228Z,26.43
2019-05-16T22:45:37.425Z,26.17
2019-05-16T22:48:07.231Z,25.50
2019-05-16T22:50:36.593Z,24.60
2019-05-16T22:53:06.450Z,25.60
2019-05-16T22:55:37.176Z,22.77
2019-05-16T22:58:07.655Z,25.87
2019-05-16T23:00:38.986Z,26.03
2019-05-16T23:03:07.071Z,24.57
2019-05-16T23:05:36.833Z,26.77
2019-05-16T23:08:09.787Z,24.80
2019-05-16T23:10:37.009Z,26.33
2019-05-16T23:13:06.720Z,23.50
2019-05-16T23:15:35.895Z,23.80
2019-05-16T23:18:06.772Z,26.60
2019-05-16T23:20:37.018Z,24.60
2019-05-16T23:23:07.126Z,22.03
2019-05-16T23:25:37.189Z,24.97
2019-05-16T23:28:07.760Z,27.70
2019-05-16T23:30:36.917Z,25.73
2019-05-16T23:33:07.186Z,29.20
2019-05-16T23:35:37.677Z,25.33
2019-05-16T23:38:18.490Z,27.57
2019-05-16T23:40:37.608Z,26.17
2019-05-16T23:43:07.598Z,26.70
2019-05-16T23:45:37.557Z,25.97
2019-05-16T23:48:10.305Z,27.40
2019-05-16T23:50:37.004Z,28.80
2019-05-16T23:53:07.401Z,28.57
2019-05-16T23:55:37.200Z,30.17
2019-05-16T23:58:07.109Z,29.37
